createdAt,value
2019-03-08T00:00:28.032Z,7.90
2019-03-08T00:02:56.567Z,10.38
2019-03-08T00:05:25.098Z,12.43
2019-03-08T00:07:53.622Z,4.08
2019-03-08T00:10:22.142Z,4.35
2019-03-08T00:12:50.597Z,5.80
2019-03-08T00:15:19.132Z,6.78
2019-03-08T00:17:47.650Z,8.73
2019-03-08T00:21:09.335Z,8.73
2019-03-08T00:23:37.974Z,11.12
2019-03-08T00:26:06.499Z,8.58
2019-03-08T00:28:34.946Z,7.03
2019-03-08T00:31:03.529Z,5.30
2019-03-08T00:33:32.046Z,3.75
2019-03-08T00:36:00.587Z,6.12
2019-03-08T00:38:29.195Z,6.00
2019-03-08T00:40:57.637Z,6.67
2019-03-08T00:43:26.101Z,7.08
2019-03-08T00:45:54.606Z,7.10
2019-03-08T00:48:23.119Z,5.92
2019-03-08T00:50:51.558Z,9.25
2019-03-08T00:53:20.475Z,8.78
2019-03-08T00:55:49.023Z,5.55
2019-03-08T00:58:17.455Z,7.75
2019-03-08T01:00:45.965Z,6.10
2019-03-08T01:03:14.558Z,14.05
2019-03-08T01:05:43.034Z,8.75
2019-03-08T01:08:11.976Z,6.37
2019-03-08T01:10:40.486Z,4.95
2019-03-08T01:13:08.938Z,5.60
2019-03-08T01:15:37.442Z,9.23
2019-03-08T01:18:05.886Z,7.58
2019-03-08T01:20:34.407Z,3.08
2019-03-08T01:23:03.433Z,4.55
2019-03-08T01:25:31.932Z,3.80
2019-03-08T01:28:02.995Z,7.12
2019-03-08T01:30:32.844Z,6.20
2019-03-08T01:33:01.360Z,8.00
2019-03-08T01:35:29.884Z,4.15
2019-03-08T01:37:58.386Z,6.10
2019-03-08T01:40:27.604Z,6.65
2019-03-08T01:42:56.259Z,3.93
2019-03-08T01:45:24.774Z,3.85
2019-03-08T01:47:53.291Z,3.83
2019-03-08T01:50:21.878Z,4.17
2019-03-08T01:52:50.392Z,4.53
2019-03-08T01:55:18.925Z,8.83
2019-03-08T01:57:47.358Z,6.22
2019-03-08T02:00:18.397Z,5.70
2019-03-08T02:02:47.331Z,4.85
2019-03-08T02:05:17.183Z,3.30
2019-03-08T02:07:45.621Z,3.87
2019-03-08T02:10:15.800Z,3.90
2019-03-08T02:12:44.887Z,4.45
2019-03-08T02:15:16.003Z,7.60
2019-03-08T02:17:44.460Z,5.67
2019-03-08T02:20:15.411Z,3.60
2019-03-08T02:22:43.929Z,3.35
2019-03-08T02:25:12.368Z,3.87
2019-03-08T02:27:40.871Z,2.72
2019-03-08T02:30:12.059Z,6.50
2019-03-08T02:32:40.781Z,9.40
2019-03-08T02:35:10.031Z,2.80
2019-03-08T02:37:38.530Z,4.72
2019-03-08T02:40:45.885Z,3.40
2019-03-08T02:43:16.336Z,6.92
2019-03-08T02:45:44.869Z,4.90
2019-03-08T02:48:13.382Z,7.90
2019-03-08T02:50:42.666Z,12.13
2019-03-08T02:53:11.115Z,5.37
2019-03-08T02:55:39.635Z,5.05
2019-03-08T02:58:08.148Z,6.28
2019-03-08T03:00:39.744Z,6.40
2019-03-08T03:03:08.262Z,5.72
2019-03-08T03:05:36.770Z,7.22
2019-03-08T03:08:05.491Z,5.50
2019-03-08T03:10:34.020Z,8.28
2019-03-08T03:13:02.459Z,5.80
2019-03-08T03:15:30.899Z,6.40
2019-03-08T03:17:59.343Z,6.75
2019-03-08T03:20:27.811Z,7.72
2019-03-08T03:22:56.728Z,5.40
2019-03-08T03:25:25.194Z,9.63
2019-03-08T03:27:53.730Z,6.95
2019-03-08T03:30:22.288Z,7.22
2019-03-08T03:32:50.760Z,5.40
2019-03-08T03:35:19.314Z,6.25
2019-03-08T03:37:48.242Z,6.53
2019-03-08T03:40:18.551Z,8.43
2019-03-08T03:42:47.071Z,5.75
2019-03-08T03:45:20.765Z,4.85
2019-03-08T03:47:49.304Z,5.22
2019-03-08T03:50:18.736Z,5.28
2019-03-08T03:52:47.482Z,5.17
2019-03-08T03:55:19.448Z,4.40
2019-03-08T03:57:47.902Z,7.30
2019-03-08T04:00:19.155Z,4.33
2019-03-08T04:02:47.946Z,7.28
2019-03-08T04:05:16.630Z,4.80
2019-03-08T04:07:45.144Z,5.75
2019-03-08T04:10:17.405Z,4.55
2019-03-08T04:12:45.986Z,4.65
2019-03-08T04:15:21.591Z,2.62
2019-03-08T04:17:50.110Z,3.02
2019-03-08T04:20:20.114Z,3.22
2019-03-08T04:22:48.634Z,3.77
2019-03-08T04:25:17.151Z,2.95
2019-03-08T04:27:45.946Z,3.77
2019-03-08T04:30:16.419Z,5.00
2019-03-08T04:32:44.944Z,5.87
2019-03-08T04:35:13.487Z,5.17
2019-03-08T04:37:42.072Z,4.90
2019-03-08T04:40:14.487Z,5.30
2019-03-08T04:42:42.959Z,5.80
2019-03-08T04:45:13.412Z,3.05
2019-03-08T04:47:41.993Z,4.67
2019-03-08T04:50:12.665Z,4.05
2019-03-08T04:52:41.175Z,5.42
2019-03-08T04:55:18.383Z,3.67
2019-03-08T04:57:47.275Z,6.20
2019-03-08T05:00:17.542Z,3.67
2019-03-08T05:02:46.133Z,5.37
2019-03-08T05:05:14.707Z,5.45
2019-03-08T05:07:43.247Z,6.05
2019-03-08T05:10:20.218Z,2.47
2019-03-08T05:12:48.748Z,3.90
2019-03-08T05:15:17.651Z,6.50
2019-03-08T05:17:46.094Z,4.90
2019-03-08T05:20:14.675Z,4.25
2019-03-08T05:22:43.189Z,3.22
2019-03-08T05:25:13.534Z,2.58
2019-03-08T05:27:42.125Z,3.45
2019-03-08T05:30:16.653Z,5.00
2019-03-08T05:32:45.205Z,2.85
2019-03-08T05:35:14.719Z,3.65
2019-03-08T05:37:43.696Z,3.83
2019-03-08T05:40:16.419Z,3.37
2019-03-08T05:43:04.279Z,2.87
2019-03-08T05:45:32.744Z,4.47
2019-03-08T05:48:01.254Z,7.78
2019-03-08T05:50:29.696Z,5.20
2019-03-08T05:52:58.143Z,3.80
2019-03-08T05:55:26.658Z,6.35
2019-03-08T05:57:55.198Z,7.60
2019-03-08T06:00:31.857Z,5.08
2019-03-08T06:02:58.230Z,7.40
2019-03-08T06:05:26.671Z,5.20
2019-03-08T06:07:55.185Z,13.32
2019-03-08T06:10:31.974Z,15.28
2019-03-08T06:13:02.144Z,9.33
2019-03-08T06:15:30.676Z,10.40
2019-03-08T06:17:59.872Z,13.30
2019-03-08T06:20:28.380Z,9.28
2019-03-08T06:22:57.284Z,18.27
2019-03-08T06:25:25.804Z,10.45
2019-03-08T06:27:54.342Z,16.20
2019-03-08T06:30:22.851Z,18.60
2019-03-08T06:32:51.581Z,14.45
2019-03-08T06:35:20.016Z,15.53
2019-03-08T06:37:48.535Z,19.37
2019-03-08T06:40:17.043Z,19.80
2019-03-08T06:42:45.508Z,18.62
2019-03-08T06:45:18.165Z,23.90
2019-03-08T06:47:47.079Z,26.50
2019-03-08T06:50:15.967Z,26.12
2019-03-08T06:52:44.776Z,23.80
2019-03-08T06:55:14.949Z,28.80
2019-03-08T06:57:43.471Z,33.98
2019-03-08T07:03:05.033Z,32.75
2019-03-08T07:05:33.556Z,24.75
2019-03-08T07:08:02.003Z,26.52
2019-03-08T07:10:30.526Z,30.35
2019-03-08T07:13:03.154Z,30.88
2019-03-08T07:15:29.611Z,48.42
2019-03-08T07:17:58.142Z,35.73
2019-03-08T07:20:40.168Z,35.10
2019-03-08T07:23:15.904Z,36.03
2019-03-08T07:25:57.676Z,43.25
2019-03-08T07:28:30.284Z,43.48
2019-03-08T07:31:16.508Z,45.65
2019-03-08T07:33:53.273Z,39.75
2019-03-08T07:36:21.699Z,45.98
2019-03-08T07:39:09.826Z,37.88
2019-03-08T07:41:40.002Z,50.65
2019-03-08T07:44:10.191Z,42.50
2019-03-08T07:46:49.220Z,51.15
2019-03-08T07:49:22.444Z,47.33
2019-03-08T07:52:08.951Z,46.40
2019-03-08T07:54:54.895Z,46.42
2019-03-08T07:57:27.725Z,43.42
2019-03-08T07:59:57.979Z,53.87
2019-03-08T08:05:00.383Z,60.35
2019-03-08T08:07:36.671Z,53.02
2019-03-08T08:10:19.392Z,42.78
2019-03-08T08:12:49.563Z,54.18
2019-03-08T08:15:28.594Z,37.60
2019-03-08T08:18:15.278Z,53.80
2019-03-08T08:20:45.355Z,42.85
2019-03-08T08:23:18.170Z,48.08
2019-03-08T08:25:48.383Z,49.93
2019-03-08T08:28:24.615Z,44.48
2019-03-08T08:31:09.823Z,38.73
2019-03-08T08:33:48.894Z,38.23
2019-03-08T08:36:35.438Z,35.23
2019-03-08T08:39:15.859Z,36.53
2019-03-08T08:41:48.635Z,30.43
2019-03-08T08:44:18.791Z,45.50
2019-03-08T08:46:54.763Z,41.53
2019-03-08T08:49:30.872Z,43.00
2019-03-08T08:52:06.959Z,44.93
2019-03-08T08:54:49.043Z,49.95
2019-03-08T08:57:21.876Z,28.95
2019-03-08T08:59:51.968Z,42.05
2019-03-08T09:02:38.233Z,39.50
2019-03-08T09:05:09.947Z,35.17
2019-03-08T09:07:42.827Z,39.90
2019-03-08T09:10:22.157Z,36.42
2019-03-08T09:13:04.444Z,31.27
2019-03-08T09:15:36.139Z,38.40
2019-03-08T09:18:24.197Z,34.35
2019-03-08T09:20:54.382Z,39.90
2019-03-08T09:23:24.539Z,39.40
2019-03-08T09:25:57.276Z,31.80
2019-03-08T09:28:33.439Z,39.98
2019-03-08T09:31:03.532Z,41.70
2019-03-08T09:33:33.968Z,32.80
2019-03-08T09:36:19.243Z,36.53
2019-03-08T09:39:05.587Z,40.67
2019-03-08T09:41:38.887Z,35.70
2019-03-08T09:44:11.787Z,26.42
2019-03-08T09:46:51.067Z,28.30
2019-03-08T09:49:21.228Z,42.45
2019-03-08T09:51:57.560Z,39.48
2019-03-08T09:54:30.688Z,37.78
2019-03-08T09:57:09.560Z,24.10
2019-03-08T09:59:56.025Z,37.85
2019-03-08T10:02:26.216Z,33.98
2019-03-08T10:05:05.247Z,30.02
2019-03-08T10:07:41.296Z,32.95
2019-03-08T10:10:11.791Z,39.08
2019-03-08T10:12:54.064Z,29.80
2019-03-08T10:15:33.358Z,33.33
2019-03-08T10:18:12.280Z,34.40
2019-03-08T10:20:45.394Z,32.17
2019-03-08T10:23:19.838Z,29.80
2019-03-08T10:25:50.142Z,27.80
2019-03-08T10:28:20.307Z,24.52
2019-03-08T10:30:56.434Z,24.00
2019-03-08T10:33:32.527Z,24.37
2019-03-08T10:36:20.533Z,26.10
2019-03-08T10:38:53.387Z,31.77
2019-03-08T10:41:32.492Z,27.07
2019-03-08T10:44:08.948Z,32.67
2019-03-08T10:46:43.830Z,37.88
2019-03-08T10:49:19.708Z,23.92
2019-03-08T10:51:49.831Z,28.32
2019-03-08T10:54:28.424Z,28.15
2019-03-08T10:57:08.155Z,21.63
2019-03-08T10:59:44.079Z,24.75
2019-03-08T11:02:16.767Z,22.00
2019-03-08T11:04:52.436Z,21.95
2019-03-08T11:07:25.314Z,21.35
2019-03-08T11:10:10.559Z,18.80
2019-03-08T11:12:46.821Z,25.37
2019-03-08T11:15:24.725Z,18.17
2019-03-08T11:17:54.911Z,28.00
2019-03-08T11:20:39.967Z,25.17
2019-03-08T11:23:24.975Z,24.20
2019-03-08T11:26:07.136Z,26.52
2019-03-08T11:28:40.147Z,26.42
2019-03-08T11:31:13.238Z,25.92
2019-03-08T11:33:46.171Z,22.93
2019-03-08T11:36:31.479Z,20.93
2019-03-08T11:39:10.369Z,24.15
2019-03-08T11:41:58.351Z,20.23
2019-03-08T11:44:34.211Z,23.42
2019-03-08T11:47:16.428Z,27.45
2019-03-08T11:49:46.584Z,24.95
2019-03-08T11:52:33.235Z,31.02
2019-03-08T11:55:19.273Z,27.93
2019-03-08T11:57:55.299Z,28.42
2019-03-08T12:00:37.415Z,28.20
2019-03-08T12:03:16.290Z,27.73
2019-03-08T12:05:50.008Z,24.72
2019-03-08T12:08:36.881Z,27.45
2019-03-08T12:11:09.492Z,30.48
2019-03-08T12:13:39.570Z,32.63
2019-03-08T12:16:21.727Z,20.68
2019-03-08T12:19:00.618Z,26.60
2019-03-08T12:21:30.892Z,16.60
2019-03-08T12:24:03.902Z,30.08
2019-03-08T12:26:39.826Z,18.67
2019-03-08T12:29:19.133Z,23.70
2019-03-08T12:32:05.635Z,21.47
2019-03-08T12:34:41.789Z,33.13
2019-03-08T12:37:11.973Z,25.30
2019-03-08T12:39:42.334Z,22.48
2019-03-08T12:42:21.304Z,24.18
2019-03-08T12:44:51.388Z,21.97
2019-03-08T12:47:24.281Z,22.27
2019-03-08T12:50:03.420Z,18.73
2019-03-08T12:52:36.560Z,23.25
2019-03-08T12:55:21.184Z,17.62
2019-03-08T12:58:07.561Z,25.65
2019-03-08T13:00:43.663Z,19.60
2019-03-08T13:03:22.249Z,16.77
2019-03-08T13:05:52.350Z,28.20
2019-03-08T13:08:38.671Z,18.75
2019-03-08T13:11:07.131Z,20.82
2019-03-08T13:13:35.594Z,22.40
2019-03-08T13:16:04.485Z,16.46
2019-03-08T13:18:32.939Z,15.03
2019-03-08T13:21:01.410Z,19.27
2019-03-08T13:23:29.862Z,12.00
2019-03-08T13:25:58.375Z,11.03
2019-03-08T13:28:26.830Z,12.88
2019-03-08T13:30:55.275Z,10.98
2019-03-08T13:33:23.827Z,12.70
2019-03-08T13:35:52.344Z,18.27
2019-03-08T13:38:20.795Z,19.17
2019-03-08T13:40:49.327Z,19.10
2019-03-08T13:43:17.840Z,16.07
2019-03-08T13:45:46.293Z,12.43
2019-03-08T13:48:15.013Z,16.65
2019-03-08T13:50:43.564Z,22.58
2019-03-08T13:53:12.014Z,16.42
2019-03-08T13:55:40.528Z,13.43
2019-03-08T13:58:09.064Z,18.10
2019-03-08T14:00:37.513Z,15.50
2019-03-08T14:03:06.140Z,23.92
2019-03-08T14:05:34.608Z,18.37
2019-03-08T14:08:03.137Z,22.37
2019-03-08T14:10:31.655Z,18.00
2019-03-08T14:13:00.136Z,23.98
2019-03-08T14:15:28.654Z,18.48
2019-03-08T14:17:57.281Z,16.77
2019-03-08T14:20:27.239Z,18.85
2019-03-08T14:22:55.687Z,23.90
2019-03-08T14:25:24.162Z,16.60
2019-03-08T14:27:52.680Z,16.57
2019-03-08T14:30:24.012Z,15.28
2019-03-08T14:32:52.594Z,17.50
2019-03-08T14:35:21.587Z,20.97
2019-03-08T14:37:52.329Z,33.05
2019-03-08T14:40:33.847Z,17.50
2019-03-08T14:43:07.060Z,21.75
2019-03-08T14:45:46.383Z,14.20
2019-03-08T14:48:14.918Z,18.27
2019-03-08T14:50:43.356Z,14.00
2019-03-08T14:53:11.831Z,12.58
2019-03-08T14:55:40.350Z,26.15
2019-03-08T14:58:08.870Z,16.80
2019-03-08T15:00:37.342Z,30.02
2019-03-08T15:03:05.843Z,24.50
2019-03-08T15:05:34.304Z,30.77
2019-03-08T15:08:03.330Z,24.00
2019-03-08T15:10:39.048Z,21.10
2019-03-08T15:15:29.764Z,14.87
2019-03-08T15:17:58.208Z,24.85
2019-03-08T15:20:26.731Z,19.35
2019-03-08T15:22:55.216Z,18.70
2019-03-08T15:25:23.663Z,16.15
2019-03-08T15:27:52.111Z,22.02
2019-03-08T15:30:20.639Z,22.73
2019-03-08T15:32:49.087Z,20.80
2019-03-08T15:35:18.075Z,20.27
2019-03-08T15:37:46.573Z,20.43
2019-03-08T15:40:20.443Z,24.10
2019-03-08T15:42:48.897Z,14.75
2019-03-08T15:45:17.888Z,19.65
2019-03-08T15:47:47.176Z,21.17
2019-03-08T15:50:17.367Z,21.50
2019-03-08T15:52:45.826Z,30.27
2019-03-08T15:55:14.649Z,32.65
2019-03-08T15:57:43.186Z,27.35
2019-03-08T16:00:20.045Z,16.02
2019-03-08T16:02:48.645Z,19.77
2019-03-08T16:05:18.564Z,23.30
2019-03-08T16:07:47.012Z,17.25
2019-03-08T16:10:20.368Z,14.20
2019-03-08T16:12:48.837Z,13.20
2019-03-08T16:15:17.365Z,13.03
2019-03-08T16:17:45.846Z,13.40
2019-03-08T16:20:19.035Z,15.38
2019-03-08T16:22:47.499Z,21.02
2019-03-08T16:25:16.897Z,15.80
2019-03-08T16:27:45.807Z,16.60
2019-03-08T16:30:39.611Z,16.15
2019-03-08T16:33:21.762Z,14.43
2019-03-08T16:35:53.476Z,9.80
2019-03-08T16:38:25.820Z,13.83
2019-03-08T16:41:13.777Z,11.65
2019-03-08T16:43:45.837Z,19.10
2019-03-08T16:46:29.820Z,13.75
2019-03-08T16:49:00.169Z,9.13
2019-03-08T16:51:34.070Z,15.80
2019-03-08T16:56:42.679Z,11.90
2019-03-08T16:59:29.435Z,14.83
2019-03-08T17:01:59.527Z,18.48
2019-03-08T17:04:29.674Z,13.68
2019-03-08T17:09:29.174Z,14.55
2019-03-08T17:12:15.529Z,21.73
2019-03-08T17:14:51.574Z,16.12
2019-03-08T17:17:33.651Z,17.52
2019-03-08T17:20:06.380Z,14.95
2019-03-08T17:22:36.539Z,14.47
2019-03-08T17:25:07.650Z,13.00
2019-03-08T17:27:39.793Z,16.93
2019-03-08T17:30:12.623Z,9.85
2019-03-08T17:32:42.827Z,11.03
2019-03-08T17:35:16.028Z,7.42
2019-03-08T17:37:55.055Z,15.30
2019-03-08T17:40:25.207Z,16.00
2019-03-08T17:43:04.398Z,13.25
2019-03-08T17:45:40.863Z,11.05
2019-03-08T17:48:27.176Z,16.57
2019-03-08T17:51:06.264Z,15.03
2019-03-08T17:53:36.406Z,14.05
2019-03-08T17:56:22.379Z,21.17
2019-03-08T17:59:07.749Z,14.25
2019-03-08T18:01:37.852Z,13.93
2019-03-08T18:04:07.943Z,12.73
2019-03-08T18:06:38.099Z,12.95
2019-03-08T18:09:10.757Z,16.23
2019-03-08T18:11:46.554Z,14.28
2019-03-08T18:14:28.684Z,14.63
2019-03-08T18:17:04.223Z,16.60
2019-03-08T18:19:37.379Z,14.05
2019-03-08T18:22:07.552Z,13.90
2019-03-08T18:24:37.721Z,17.32
2019-03-08T18:29:56.256Z,14.73
2019-03-08T18:32:32.451Z,12.43
2019-03-08T18:35:02.543Z,16.90
2019-03-08T18:37:41.320Z,13.53
2019-03-08T18:40:11.520Z,15.03
2019-03-08T18:42:47.699Z,11.20
2019-03-08T18:45:34.303Z,15.15
2019-03-08T18:48:13.294Z,14.23
2019-03-08T18:50:46.474Z,19.30
2019-03-08T18:53:32.945Z,36.40
2019-03-08T18:56:19.589Z,17.98
2019-03-08T18:58:55.803Z,20.23
2019-03-08T19:01:26.396Z,22.80
2019-03-08T19:04:02.243Z,13.40
2019-03-08T19:06:50.640Z,18.57
2019-03-08T19:09:39.528Z,12.05
2019-03-08T19:12:09.645Z,14.78
2019-03-08T19:14:42.292Z,13.48
2019-03-08T19:17:21.216Z,20.72
2019-03-08T19:19:53.878Z,14.25
2019-03-08T19:22:41.735Z,18.77
2019-03-08T19:25:23.812Z,20.02
2019-03-08T19:27:59.808Z,27.30
2019-03-08T19:30:29.901Z,19.07
2019-03-08T19:33:00.062Z,16.32
2019-03-08T19:35:33.120Z,20.62
2019-03-08T19:38:19.427Z,20.68
2019-03-08T19:40:55.451Z,16.42
2019-03-08T19:43:25.547Z,23.85
2019-03-08T19:46:07.824Z,19.90
2019-03-08T19:48:56.179Z,16.80
2019-03-08T19:51:44.623Z,23.30
2019-03-08T19:54:20.912Z,21.20
2019-03-08T19:57:03.119Z,22.13
2019-03-08T19:59:35.839Z,20.20
2019-03-08T20:02:18.467Z,20.82
2019-03-08T20:04:54.754Z,18.07
2019-03-08T20:07:24.944Z,22.60
2019-03-08T20:10:01.059Z,20.12
2019-03-08T20:12:47.359Z,11.63
2019-03-08T20:15:33.560Z,12.93
2019-03-08T20:18:09.557Z,22.93
2019-03-08T20:20:51.959Z,20.02
2019-03-08T20:23:24.666Z,19.32
2019-03-08T20:25:54.756Z,19.52
2019-03-08T20:28:41.461Z,15.28
2019-03-08T20:31:11.697Z,20.32
2019-03-08T20:33:44.755Z,19.42
2019-03-08T20:36:23.877Z,19.27
2019-03-08T20:38:59.743Z,20.40
2019-03-08T20:41:32.859Z,22.13
2019-03-08T20:44:02.963Z,22.42
2019-03-08T20:46:35.074Z,19.85
2019-03-08T20:49:03.257Z,15.60
2019-03-08T20:51:31.779Z,25.75
2019-03-08T20:54:00.225Z,27.62
2019-03-08T20:56:28.658Z,20.97
2019-03-08T20:58:57.136Z,31.90
2019-03-08T21:01:26.047Z,22.00
2019-03-08T21:03:57.515Z,25.92
2019-03-08T21:06:26.150Z,25.48
2019-03-08T21:08:54.671Z,22.10
2019-03-08T21:11:24.601Z,15.68
2019-03-08T21:13:53.472Z,19.23
2019-03-08T21:16:21.923Z,18.65
2019-03-08T21:18:50.379Z,18.87
2019-03-08T21:21:18.887Z,11.90
2019-03-08T21:23:47.361Z,14.65
2019-03-08T21:26:15.803Z,22.82
2019-03-08T21:28:44.251Z,18.12
2019-03-08T21:31:12.710Z,20.88
2019-03-08T21:33:41.179Z,17.67
2019-03-08T21:36:09.717Z,17.00
2019-03-08T21:38:38.239Z,16.65
2019-03-08T21:41:07.152Z,15.38
2019-03-08T21:43:35.594Z,15.18
2019-03-08T21:46:04.043Z,19.30
2019-03-08T21:48:32.559Z,15.98
2019-03-08T21:51:01.006Z,21.15
2019-03-08T21:53:29.460Z,21.25
2019-03-08T21:55:57.931Z,18.67
2019-03-08T21:58:26.377Z,19.75
2019-03-08T22:00:54.812Z,24.98
2019-03-08T22:03:23.334Z,27.93
2019-03-08T22:05:51.779Z,25.32
2019-03-08T22:08:20.844Z,27.65
2019-03-08T22:10:51.006Z,20.12
2019-03-08T22:13:19.461Z,23.55
2019-03-08T22:15:47.951Z,24.35
2019-03-08T22:18:16.391Z,18.02
2019-03-08T22:20:44.909Z,36.88
2019-03-08T22:23:13.427Z,21.17
2019-03-08T22:25:41.874Z,22.13
2019-03-08T22:28:10.323Z,24.10
2019-03-08T22:30:38.795Z,20.43
2019-03-08T22:33:07.241Z,20.48
2019-03-08T22:35:36.256Z,18.40
2019-03-08T22:38:04.704Z,18.92
2019-03-08T22:40:33.177Z,14.40
2019-03-08T22:43:01.698Z,12.90
2019-03-08T22:45:30.157Z,32.70
2019-03-08T22:47:58.683Z,18.57
2019-03-08T22:50:27.123Z,19.73
2019-03-08T22:52:55.651Z,17.80
2019-03-08T22:55:24.092Z,30.15
2019-03-08T22:57:52.535Z,13.85
2019-03-08T23:03:34.898Z,19.23
2019-03-08T23:06:03.416Z,15.55
2019-03-08T23:08:33.771Z,19.73
2019-03-08T23:11:02.221Z,14.65
2019-03-08T23:13:30.660Z,14.60
2019-03-08T23:15:59.124Z,14.07
2019-03-08T23:18:27.571Z,22.37
2019-03-08T23:20:56.560Z,15.88
2019-03-08T23:23:25.051Z,15.40
2019-03-08T23:25:53.490Z,15.95
2019-03-08T23:28:35.164Z,19.15
2019-03-08T23:31:05.381Z,23.27
2019-03-08T23:33:33.827Z,14.35
2019-03-08T23:36:02.278Z,18.65
2019-03-08T23:38:30.818Z,17.70
2019-03-08T23:40:59.256Z,20.08
2019-03-08T23:43:27.696Z,13.40
2019-03-08T23:45:56.155Z,18.32
2019-03-08T23:48:24.630Z,17.90
2019-03-08T23:50:53.156Z,15.98
2019-03-08T23:53:41.038Z,13.90
2019-03-08T23:56:09.551Z,15.38
2019-03-08T23:58:38.015Z,15.72
